sensor_id;sensor_type;location;lat;lon;timestamp;P1;durP1;ratioP1;P2;durP2;ratioP2
23388;SDS011;11867;51.198;11.966;2023-11-21T00:03:05;2.45;;;1.02;;
23388;SDS011;11867;51.198;11.966;2023-11-21T00:08:28;2.67;;;1.17;;
23388;SDS011;11867;51.198;11.966;2023-11-21T00:13:53;6.10;;;1.30;;
23388;SDS011;11867;51.198;11.966;2023-11-21T00:19:16;2.35;;;1.20;;
23388;SDS011;11867;51.198;11.966;2023-11-21T00:24:39;2.65;;;1.30;;
23388;SDS011;11867;51.198;11.966;2023-11-21T00:30:04;6.15;;;1.20;;
23388;SDS011;11867;51.198;11.966;2023-11-21T00:35:28;4.03;;;1.77;;
23388;SDS011;11867;51.198;11.966;2023-11-21T00:40:51;4.60;;;1.10;;
23388;SDS011;11867;51.198;11.966;2023-11-21T00:46:18;4.95;;;1.65;;
23388;SDS011;11867;51.198;11.966;2023-11-21T00:51:41;2.53;;;1.10;;
23388;SDS011;11867;51.198;11.966;2023-11-21T00:57:04;4.32;;;1.30;;
23388;SDS011;11867;51.198;11.966;2023-11-21T01:02:29;4.30;;;1.20;;
23388;SDS011;11867;51.198;11.966;2023-11-21T01:07:52;3.70;;;1.20;;
23388;SDS011;11867;51.198;11.966;2023-11-21T01:13:15;2.80;;;1.50;;
23388;SDS011;11867;51.198;11.966;2023-11-21T01:18:39;4.80;;;1.48;;
23388;SDS011;11867;51.198;11.966;2023-11-21T01:24:03;3.95;;;1.10;;
23388;SDS011;11867;51.198;11.966;2023-11-21T01:29:28;2.97;;;1.80;;
23388;SDS011;11867;51.198;11.966;2023-11-21T01:34:53;3.03;;;1.55;;
23388;SDS011;11867;51.198;11.966;2023-11-21T01:45:40;4.53;;;1.35;;
23388;SDS011;11867;51.198;11.966;2023-11-21T01:51:05;5.38;;;1.33;;
23388;SDS011;11867;51.198;11.966;2023-11-21T01:56:28;1.52;;;1.30;;
23388;SDS011;11867;51.198;11.966;2023-11-21T02:01:52;6.20;;;1.20;;
23388;SDS011;11867;51.198;11.966;2023-11-21T02:07:19;4.22;;;1.00;;
23388;SDS011;11867;51.198;11.966;2023-11-21T02:12:45;4.32;;;1.27;;
23388;SDS011;11867;51.198;11.966;2023-11-21T02:18:08;4.05;;;1.40;;
23388;SDS011;11867;51.198;11.966;2023-11-21T02:23:34;2.78;;;1.33;;
23388;SDS011;11867;51.198;11.966;2023-11-21T02:28:57;5.97;;;1.38;;
23388;SDS011;11867;51.198;11.966;2023-11-21T02:34:21;5.00;;;1.60;;
23388;SDS011;11867;51.198;11.966;2023-11-21T02:45:10;3.45;;;1.70;;
23388;SDS011;11867;51.198;11.966;2023-11-21T02:50:34;3.85;;;1.58;;
23388;SDS011;11867;51.198;11.966;2023-11-21T02:56:00;2.78;;;1.70;;
23388;SDS011;11867;51.198;11.966;2023-11-21T03:01:23;4.43;;;1.95;;
23388;SDS011;11867;51.198;11.966;2023-11-21T03:06:46;3.33;;;1.75;;
23388;SDS011;11867;51.198;11.966;2023-11-21T03:12:11;6.57;;;1.83;;
23388;SDS011;11867;51.198;11.966;2023-11-21T03:17:34;3.95;;;2.22;;
23388;SDS011;11867;51.198;11.966;2023-11-21T03:22:58;3.67;;;2.28;;
23388;SDS011;11867;51.198;11.966;2023-11-21T03:28:23;4.43;;;2.73;;
23388;SDS011;11867;51.198;11.966;2023-11-21T03:33:46;5.43;;;2.03;;
23388;SDS011;11867;51.198;11.966;2023-11-21T03:39:09;5.72;;;1.95;;
23388;SDS011;11867;51.198;11.966;2023-11-21T03:44:34;3.45;;;1.80;;
23388;SDS011;11867;51.198;11.966;2023-11-21T03:49:57;4.25;;;1.58;;
23388;SDS011;11867;51.198;11.966;2023-11-21T03:55:20;6.13;;;2.15;;
23388;SDS011;11867;51.198;11.966;2023-11-21T04:00:44;4.15;;;1.92;;
23388;SDS011;11867;51.198;11.966;2023-11-21T04:06:07;5.53;;;1.75;;
23388;SDS011;11867;51.198;11.966;2023-11-21T04:11:31;2.33;;;1.20;;
23388;SDS011;11867;51.198;11.966;2023-11-21T04:16:56;5.18;;;2.10;;
23388;SDS011;11867;51.198;11.966;2023-11-21T04:22:19;4.38;;;1.67;;
23388;SDS011;11867;51.198;11.966;2023-11-21T04:27:43;5.15;;;1.90;;
23388;SDS011;11867;51.198;11.966;2023-11-21T04:33:08;4.05;;;2.05;;
23388;SDS011;11867;51.198;11.966;2023-11-21T04:38:31;3.50;;;1.70;;
23388;SDS011;11867;51.198;11.966;2023-11-21T04:43:54;9.27;;;2.38;;
23388;SDS011;11867;51.198;11.966;2023-11-21T04:49:19;5.45;;;2.75;;
23388;SDS011;11867;51.198;11.966;2023-11-21T04:54:42;8.95;;;3.47;;
23388;SDS011;11867;51.198;11.966;2023-11-21T05:00:05;10.13;;;3.58;;
23388;SDS011;11867;51.198;11.966;2023-11-21T05:05:31;6.70;;;3.58;;
23388;SDS011;11867;51.198;11.966;2023-11-21T05:10:55;8.82;;;3.53;;
23388;SDS011;11867;51.198;11.966;2023-11-21T05:16:18;8.52;;;3.58;;
23388;SDS011;11867;51.198;11.966;2023-11-21T05:21:43;8.85;;;3.97;;
23388;SDS011;11867;51.198;11.966;2023-11-21T05:27:06;7.35;;;4.20;;
23388;SDS011;11867;51.198;11.966;2023-11-21T05:32:31;8.43;;;4.10;;
23388;SDS011;11867;51.198;11.966;2023-11-21T05:37:56;7.85;;;4.00;;
23388;SDS011;11867;51.198;11.966;2023-11-21T05:43:19;3.33;;;2.63;;
23388;SDS011;11867;51.198;11.966;2023-11-21T05:48:42;8.63;;;3.95;;
23388;SDS011;11867;51.198;11.966;2023-11-21T05:54:06;7.30;;;3.55;;
23388;SDS011;11867;51.198;11.966;2023-11-21T05:59:30;4.47;;;2.60;;
23388;SDS011;11867;51.198;11.966;2023-11-21T06:04:53;10.38;;;4.60;;
23388;SDS011;11867;51.198;11.966;2023-11-21T06:10:17;6.60;;;4.57;;
23388;SDS011;11867;51.198;11.966;2023-11-21T06:15:42;6.80;;;4.57;;
23388;SDS011;11867;51.198;11.966;2023-11-21T06:21:05;9.20;;;5.20;;
23388;SDS011;11867;51.198;11.966;2023-11-21T06:26:36;8.20;;;4.45;;
23388;SDS011;11867;51.198;11.966;2023-11-21T06:32:00;7.80;;;3.65;;
23388;SDS011;11867;51.198;11.966;2023-11-21T06:37:24;5.68;;;3.58;;
23388;SDS011;11867;51.198;11.966;2023-11-21T06:42:49;7.28;;;5.15;;
23388;SDS011;11867;51.198;11.966;2023-11-21T06:48:13;7.95;;;4.90;;
23388;SDS011;11867;51.198;11.966;2023-11-21T06:53:36;7.80;;;4.97;;
23388;SDS011;11867;51.198;11.966;2023-11-21T06:59:01;10.07;;;5.75;;
23388;SDS011;11867;51.198;11.966;2023-11-21T07:04:27;12.90;;;5.88;;
23388;SDS011;11867;51.198;11.966;2023-11-21T07:09:50;12.43;;;5.88;;
23388;SDS011;11867;51.198;11.966;2023-11-21T07:15:15;10.98;;;5.82;;
23388;SDS011;11867;51.198;11.966;2023-11-21T07:20:38;14.45;;;5.95;;
23388;SDS011;11867;51.198;11.966;2023-11-21T07:26:01;11.77;;;6.10;;
23388;SDS011;11867;51.198;11.966;2023-11-21T07:31:25;14.20;;;5.95;;
23388;SDS011;11867;51.198;11.966;2023-11-21T07:36:49;11.82;;;4.55;;
23388;SDS011;11867;51.198;11.966;2023-11-21T07:42:12;19.00;;;7.20;;
23388;SDS011;11867;51.198;11.966;2023-11-21T07:47:36;12.30;;;7.03;;
23388;SDS011;11867;51.198;11.966;2023-11-21T07:53:01;12.40;;;6.28;;
23388;SDS011;11867;51.198;11.966;2023-11-21T07:58:27;16.30;;;6.95;;
23388;SDS011;11867;51.198;11.966;2023-11-21T08:03:51;13.93;;;6.60;;
23388;SDS011;11867;51.198;11.966;2023-11-21T08:09:20;11.57;;;6.50;;
23388;SDS011;11867;51.198;11.966;2023-11-21T08:14:45;13.65;;;6.75;;
23388;SDS011;11867;51.198;11.966;2023-11-21T08:20:11;17.15;;;7.53;;
23388;SDS011;11867;51.198;11.966;2023-11-21T08:25:35;19.27;;;6.45;;
23388;SDS011;11867;51.198;11.966;2023-11-21T08:30:58;11.70;;;6.97;;
23388;SDS011;11867;51.198;11.966;2023-11-21T08:36:25;15.65;;;5.70;;
23388;SDS011;11867;51.198;11.966;2023-11-21T08:41:53;16.00;;;7.68;;
23388;SDS011;11867;51.198;11.966;2023-11-21T08:47:18;11.73;;;6.45;;
23388;SDS011;11867;51.198;11.966;2023-11-21T08:58:10;17.80;;;8.00;;
23388;SDS011;11867;51.198;11.966;2023-11-21T09:03:34;15.00;;;8.50;;
23388;SDS011;11867;51.198;11.966;2023-11-21T09:08:59;19.57;;;8.57;;
23388;SDS011;11867;51.198;11.966;2023-11-21T09:14:26;16.20;;;8.52;;
23388;SDS011;11867;51.198;11.966;2023-11-21T09:20:01;18.13;;;9.02;;
23388;SDS011;11867;51.198;11.966;2023-11-21T09:25:29;19.17;;;9.30;;
23388;SDS011;11867;51.198;11.966;2023-11-21T09:30:52;15.05;;;7.78;;
23388;SDS011;11867;51.198;11.966;2023-11-21T09:36:15;24.75;;;12.80;;
23388;SDS011;11867;51.198;11.966;2023-11-21T09:41:43;25.25;;;13.77;;
23388;SDS011;11867;51.198;11.966;2023-11-21T09:47:07;22.20;;;13.00;;
23388;SDS011;11867;51.198;11.966;2023-11-21T09:52:32;19.98;;;11.02;;
23388;SDS011;11867;51.198;11.966;2023-11-21T09:58:11;18.02;;;9.85;;
23388;SDS011;11867;51.198;11.966;2023-11-21T10:03:35;15.32;;;9.00;;
23388;SDS011;11867;51.198;11.966;2023-11-21T10:09:00;15.40;;;7.65;;
23388;SDS011;11867;51.198;11.966;2023-11-21T10:14:27;11.25;;;7.22;;
23388;SDS011;11867;51.198;11.966;2023-11-21T10:19:51;11.38;;;8.25;;
23388;SDS011;11867;51.198;11.966;2023-11-21T10:25:17;7.47;;;5.93;;
23388;SDS011;11867;51.198;11.966;2023-11-21T10:30:43;9.48;;;6.05;;
23388;SDS011;11867;51.198;11.966;2023-11-21T10:36:07;13.05;;;7.72;;
23388;SDS011;11867;51.198;11.966;2023-11-21T10:41:32;5.85;;;5.03;;
23388;SDS011;11867;51.198;11.966;2023-11-21T10:46:59;4.57;;;3.75;;
23388;SDS011;11867;51.198;11.966;2023-11-21T10:52:26;8.13;;;5.13;;
23388;SDS011;11867;51.198;11.966;2023-11-21T10:57:51;9.30;;;5.65;;
23388;SDS011;11867;51.198;11.966;2023-11-21T11:03:17;7.55;;;6.50;;
23388;SDS011;11867;51.198;11.966;2023-11-21T11:14:03;7.53;;;6.18;;
23388;SDS011;11867;51.198;11.966;2023-11-21T11:19:29;8.95;;;6.03;;
23388;SDS011;11867;51.198;11.966;2023-11-21T11:25:06;8.82;;;6.68;;
23388;SDS011;11867;51.198;11.966;2023-11-21T11:30:45;14.57;;;8.93;;
23388;SDS011;11867;51.198;11.966;2023-11-21T11:36:21;12.98;;;8.82;;
23388;SDS011;11867;51.198;11.966;2023-11-21T11:41:48;14.55;;;11.13;;
23388;SDS011;11867;51.198;11.966;2023-11-21T11:47:13;16.85;;;11.68;;
23388;SDS011;11867;51.198;11.966;2023-11-21T11:52:42;15.73;;;11.45;;
23388;SDS011;11867;51.198;11.966;2023-11-21T11:58:06;17.63;;;12.18;;
23388;SDS011;11867;51.198;11.966;2023-11-21T12:03:30;19.70;;;14.00;;
23388;SDS011;11867;51.198;11.966;2023-11-21T12:08:57;19.33;;;12.13;;
23388;SDS011;11867;51.198;11.966;2023-11-21T12:14:26;18.88;;;13.45;;
23388;SDS011;11867;51.198;11.966;2023-11-21T12:19:50;19.42;;;12.38;;
23388;SDS011;11867;51.198;11.966;2023-11-21T12:25:16;17.80;;;11.15;;
23388;SDS011;11867;51.198;11.966;2023-11-21T12:30:41;16.85;;;10.93;;
23388;SDS011;11867;51.198;11.966;2023-11-21T12:36:07;16.05;;;11.25;;
23388;SDS011;11867;51.198;11.966;2023-11-21T12:41:34;16.98;;;11.43;;
23388;SDS011;11867;51.198;11.966;2023-11-21T12:46:57;13.75;;;9.63;;
23388;SDS011;11867;51.198;11.966;2023-11-21T12:52:20;17.45;;;12.02;;
23388;SDS011;11867;51.198;11.966;2023-11-21T12:57:45;18.75;;;13.40;;
23388;SDS011;11867;51.198;11.966;2023-11-21T13:03:08;21.85;;;14.35;;
23388;SDS011;11867;51.198;11.966;2023-11-21T13:08:40;28.75;;;16.38;;
23388;SDS011;11867;51.198;11.966;2023-11-21T13:14:05;16.67;;;11.43;;
23388;SDS011;11867;51.198;11.966;2023-11-21T13:25:08;19.92;;;12.23;;
23388;SDS011;11867;51.198;11.966;2023-11-21T13:30:33;22.67;;;13.23;;
23388;SDS011;11867;51.198;11.966;2023-11-21T13:35:56;20.90;;;13.15;;
23388;SDS011;11867;51.198;11.966;2023-11-21T13:41:20;17.50;;;9.55;;
23388;SDS011;11867;51.198;11.966;2023-11-21T13:46:51;22.85;;;13.30;;
23388;SDS011;11867;51.198;11.966;2023-11-21T13:57:39;25.45;;;13.70;;
23388;SDS011;11867;51.198;11.966;2023-11-21T14:03:07;18.92;;;11.82;;
23388;SDS011;11867;51.198;11.966;2023-11-21T14:08:39;13.98;;;10.93;;
23388;SDS011;11867;51.198;11.966;2023-11-21T14:14:03;13.30;;;8.63;;
23388;SDS011;11867;51.198;11.966;2023-11-21T14:19:28;13.18;;;8.82;;
23388;SDS011;11867;51.198;11.966;2023-11-21T14:24:54;14.88;;;11.02;;
23388;SDS011;11867;51.198;11.966;2023-11-21T14:30:20;18.10;;;9.57;;
23388;SDS011;11867;51.198;11.966;2023-11-21T14:35:45;13.82;;;9.70;;
23388;SDS011;11867;51.198;11.966;2023-11-21T14:41:08;10.75;;;7.20;;
23388;SDS011;11867;51.198;11.966;2023-11-21T14:46:33;12.25;;;8.57;;
23388;SDS011;11867;51.198;11.966;2023-11-21T14:51:58;13.80;;;8.97;;
23388;SDS011;11867;51.198;11.966;2023-11-21T14:57:25;12.57;;;8.48;;
23388;SDS011;11867;51.198;11.966;2023-11-21T15:02:50;11.68;;;8.35;;
23388;SDS011;11867;51.198;11.966;2023-11-21T15:08:15;12.48;;;8.75;;
23388;SDS011;11867;51.198;11.966;2023-11-21T15:13:43;15.30;;;8.23;;
23388;SDS011;11867;51.198;11.966;2023-11-21T15:19:07;11.00;;;7.40;;
23388;SDS011;11867;51.198;11.966;2023-11-21T15:24:32;10.25;;;5.97;;
23388;SDS011;11867;51.198;11.966;2023-11-21T15:29:55;9.07;;;5.22;;
23388;SDS011;11867;51.198;11.966;2023-11-21T15:35:19;9.45;;;6.57;;
23388;SDS011;11867;51.198;11.966;2023-11-21T15:40:44;10.65;;;6.85;;
23388;SDS011;11867;51.198;11.966;2023-11-21T15:46:07;10.30;;;6.22;;
23388;SDS011;11867;51.198;11.966;2023-11-21T15:51:31;6.55;;;4.55;;
23388;SDS011;11867;51.198;11.966;2023-11-21T15:56:58;7.63;;;5.40;;
23388;SDS011;11867;51.198;11.966;2023-11-21T16:02:22;9.32;;;6.05;;
23388;SDS011;11867;51.198;11.966;2023-11-21T16:07:46;9.02;;;6.85;;
23388;SDS011;11867;51.198;11.966;2023-11-21T16:13:11;8.70;;;6.35;;
23388;SDS011;11867;51.198;11.966;2023-11-21T16:18:35;12.27;;;7.72;;
23388;SDS011;11867;51.198;11.966;2023-11-21T16:23:58;10.15;;;8.82;;
23388;SDS011;11867;51.198;11.966;2023-11-21T16:29:23;13.68;;;9.05;;
23388;SDS011;11867;51.198;11.966;2023-11-21T16:34:47;9.07;;;7.00;;
23388;SDS011;11867;51.198;11.966;2023-11-21T16:40:12;13.55;;;9.38;;
23388;SDS011;11867;51.198;11.966;2023-11-21T16:45:42;17.73;;;10.48;;
23388;SDS011;11867;51.198;11.966;2023-11-21T16:51:11;13.32;;;9.77;;
23388;SDS011;11867;51.198;11.966;2023-11-21T16:56:36;12.07;;;9.20;;
23388;SDS011;11867;51.198;11.966;2023-11-21T17:02:01;13.55;;;9.13;;
23388;SDS011;11867;51.198;11.966;2023-11-21T17:12:48;12.43;;;8.65;;
23388;SDS011;11867;51.198;11.966;2023-11-21T17:18:13;8.63;;;6.03;;
23388;SDS011;11867;51.198;11.966;2023-11-21T17:23:37;11.43;;;7.28;;
23388;SDS011;11867;51.198;11.966;2023-11-21T17:29:02;10.07;;;7.43;;
23388;SDS011;11867;51.198;11.966;2023-11-21T17:34:27;7.20;;;6.10;;
23388;SDS011;11867;51.198;11.966;2023-11-21T17:45:17;9.15;;;5.85;;
23388;SDS011;11867;51.198;11.966;2023-11-21T17:50:43;7.82;;;4.57;;
23388;SDS011;11867;51.198;11.966;2023-11-21T18:01:34;9.85;;;6.53;;
23388;SDS011;11867;51.198;11.966;2023-11-21T18:07:00;7.78;;;6.63;;
23388;SDS011;11867;51.198;11.966;2023-11-21T18:12:25;9.65;;;6.63;;
23388;SDS011;11867;51.198;11.966;2023-11-21T18:17:49;8.98;;;6.53;;
23388;SDS011;11867;51.198;11.966;2023-11-21T18:23:14;9.63;;;6.47;;
23388;SDS011;11867;51.198;11.966;2023-11-21T18:28:38;9.02;;;6.50;;
23388;SDS011;11867;51.198;11.966;2023-11-21T18:34:01;6.85;;;5.40;;
23388;SDS011;11867;51.198;11.966;2023-11-21T18:39:25;7.85;;;6.03;;
23388;SDS011;11867;51.198;11.966;2023-11-21T18:44:51;4.63;;;3.75;;
23388;SDS011;11867;51.198;11.966;2023-11-21T18:50:20;6.97;;;5.07;;
23388;SDS011;11867;51.198;11.966;2023-11-21T18:55:46;4.32;;;3.85;;
23388;SDS011;11867;51.198;11.966;2023-11-21T19:01:09;4.93;;;3.67;;
23388;SDS011;11867;51.198;11.966;2023-11-21T19:06:35;5.20;;;4.25;;
23388;SDS011;11867;51.198;11.966;2023-11-21T19:11:59;6.10;;;4.40;;
23388;SDS011;11867;51.198;11.966;2023-11-21T19:17:23;5.75;;;3.55;;
23388;SDS011;11867;51.198;11.966;2023-11-21T19:22:46;6.05;;;4.57;;
23388;SDS011;11867;51.198;11.966;2023-11-21T19:28:11;6.47;;;4.07;;
23388;SDS011;11867;51.198;11.966;2023-11-21T19:33:36;8.60;;;4.55;;
23388;SDS011;11867;51.198;11.966;2023-11-21T19:39:00;5.63;;;4.18;;
23388;SDS011;11867;51.198;11.966;2023-11-21T19:44:25;6.28;;;4.00;;
23388;SDS011;11867;51.198;11.966;2023-11-21T19:49:49;9.00;;;4.78;;
23388;SDS011;11867;51.198;11.966;2023-11-21T19:55:13;7.65;;;5.05;;
23388;SDS011;11867;51.198;11.966;2023-11-21T20:00:40;6.05;;;4.60;;
23388;SDS011;11867;51.198;11.966;2023-11-21T20:06:05;6.97;;;4.32;;
23388;SDS011;11867;51.198;11.966;2023-11-21T20:11:28;8.10;;;3.90;;
23388;SDS011;11867;51.198;11.966;2023-11-21T20:16:55;5.88;;;3.85;;
23388;SDS011;11867;51.198;11.966;2023-11-21T20:22:18;5.40;;;3.35;;
23388;SDS011;11867;51.198;11.966;2023-11-21T20:27:42;5.53;;;3.33;;
23388;SDS011;11867;51.198;11.966;2023-11-21T20:33:07;6.72;;;4.38;;
23388;SDS011;11867;51.198;11.966;2023-11-21T20:38:30;6.15;;;4.03;;
23388;SDS011;11867;51.198;11.966;2023-11-21T20:43:53;6.75;;;4.60;;
23388;SDS011;11867;51.198;11.966;2023-11-21T20:49:19;7.13;;;4.32;;
23388;SDS011;11867;51.198;11.966;2023-11-21T20:54:46;7.38;;;5.03;;
23388;SDS011;11867;51.198;11.966;2023-11-21T21:00:09;9.02;;;5.30;;
23388;SDS011;11867;51.198;11.966;2023-11-21T21:05:37;8.38;;;5.68;;
23388;SDS011;11867;51.198;11.966;2023-11-21T21:11:00;6.32;;;4.43;;
23388;SDS011;11867;51.198;11.966;2023-11-21T21:16:23;9.07;;;6.00;;
23388;SDS011;11867;51.198;11.966;2023-11-21T21:21:49;8.52;;;5.82;;
23388;SDS011;11867;51.198;11.966;2023-11-21T21:27:12;8.57;;;5.47;;
23388;SDS011;11867;51.198;11.966;2023-11-21T21:32:36;11.80;;;6.70;;
23388;SDS011;11867;51.198;11.966;2023-11-21T21:38:00;14.23;;;7.93;;
23388;SDS011;11867;51.198;11.966;2023-11-21T21:43:26;13.68;;;8.38;;
23388;SDS011;11867;51.198;11.966;2023-11-21T21:48:49;16.75;;;7.90;;
23388;SDS011;11867;51.198;11.966;2023-11-21T21:54:14;15.82;;;9.63;;
23388;SDS011;11867;51.198;11.966;2023-11-21T21:59:37;13.00;;;8.02;;
23388;SDS011;11867;51.198;11.966;2023-11-21T22:05:00;18.45;;;10.88;;
23388;SDS011;11867;51.198;11.966;2023-11-21T22:10:24;20.33;;;12.52;;
23388;SDS011;11867;51.198;11.966;2023-11-21T22:15:47;16.33;;;10.38;;
23388;SDS011;11867;51.198;11.966;2023-11-21T22:21:12;20.35;;;12.80;;
23388;SDS011;11867;51.198;11.966;2023-11-21T22:26:37;19.83;;;10.25;;
23388;SDS011;11867;51.198;11.966;2023-11-21T22:32:01;19.20;;;13.02;;
23388;SDS011;11867;51.198;11.966;2023-11-21T22:37:26;20.23;;;13.05;;
23388;SDS011;11867;51.198;11.966;2023-11-21T22:42:51;20.42;;;13.48;;
23388;SDS011;11867;51.198;11.966;2023-11-21T22:48:15;22.05;;;13.70;;
23388;SDS011;11867;51.198;11.966;2023-11-21T22:53:38;24.88;;;14.15;;
23388;SDS011;11867;51.198;11.966;2023-11-21T22:59:02;24.10;;;13.90;;
23388;SDS011;11867;51.198;11.966;2023-11-21T23:04:25;18.65;;;10.70;;
23388;SDS011;11867;51.198;11.966;2023-11-21T23:09:49;25.35;;;14.07;;
23388;SDS011;11867;51.198;11.966;2023-11-21T23:15:16;22.48;;;13.52;;
23388;SDS011;11867;51.198;11.966;2023-11-21T23:20:41;24.52;;;12.40;;
23388;SDS011;11867;51.198;11.966;2023-11-21T23:26:05;20.95;;;12.90;;
23388;SDS011;11867;51.198;11.966;2023-11-21T23:31:29;23.08;;;12.52;;
23388;SDS011;11867;51.198;11.966;2023-11-21T23:36:52;15.38;;;10.02;;
23388;SDS011;11867;51.198;11.966;2023-11-21T23:42:15;19.50;;;12.10;;
23388;SDS011;11867;51.198;11.966;2023-11-21T23:47:43;17.50;;;11.80;;
23388;SDS011;11867;51.198;11.966;2023-11-21T23:53:06;13.43;;;8.93;;
23388;SDS011;11867;51.198;11.966;2023-11-21T23:58:29;22.08;;;12.88;;
